X  Chiuso Dati meteorologici dell'aviazione (METAR)     EHRD Rotterdam The Hague Airport
Temperatura
43°F Temperatura
36°F Punto di rugiada
76% Umidità



Vento
17 MPH
27 KM/O
8 M/S
15 KTS



230°
SW
Condizioni attuali

Parzialmente nuvoloso Parzialmente nuvoloso
Pressione 986.79 (hPa) - 29.14 (inHg)
Visibilità 6 (miglio) - 9.7 (km)
Aeroporto
Codice-Aeroporto EHRD

Posizione: Rotterdam The Hague Airport
Distanza: 14 (mi)

Metar:
EHRD 230155Z AUTO 23015KT 190V250 9999 FEW025/// SCT029/// BKN048/// 06/02 Q0987 NOSIG

Ore: 23-02-2024 02:55 CET